Time;durP1;ratioP1;P1;durP2;ratioP2;P2;SDS_P1;SDS_P2;PMS_P1;PMS_P2;Temp;Humidity;BMP_temperature;BMP_pressure;BME280_temperature;BME280_humidity;BME280_pressure;Samples;Min_cycle;Max_cycle;Signal;HPM_P1;HPM_P2
2023/06/19 00:02:24;;;;;;;9.20;6.13;;;;;;;;;;5065885;28;20037;-78
2023/06/19 00:04:50;;;;;;;10.57;5.68;;;;;;;;;;5064949;28;20054;-76
2023/06/19 00:07:17;;;;;;;10.32;5.75;;;;;;;;;;5070010;28;20071;-77
2023/06/19 00:09:43;;;;;;;8.38;5.75;;;;;;;;;;5051572;28;20024;-77
2023/06/19 00:12:09;;;;;;;7.55;5.50;;;;;;;;;;5067605;28;20047;-77
2023/06/19 00:14:36;;;;;;;10.80;7.22;;;;;;;;;;5067369;28;20063;-76
2023/06/19 00:17:02;;;;;;;9.32;5.45;;;;;;;;;;5067990;28;20031;-76
2023/06/19 00:19:28;;;;;;;10.63;5.65;;;;;;;;;;5054497;28;20457;-78
2023/06/19 00:21:57;;;;;;;10.32;6.15;;;;;;;;;;5069047;28;20031;-77
2023/06/19 00:24:23;;;;;;;8.55;5.63;;;;;;;;;;5072880;28;20037;-77
2023/06/19 00:26:49;;;;;;;9.98;6.20;;;;;;;;;;5053733;28;20048;-77
2023/06/19 00:29:16;;;;;;;9.15;5.53;;;;;;;;;;5071086;28;20041;-78
2023/06/19 00:31:42;;;;;;;8.57;5.13;;;;;;;;;;5067099;28;20048;-77
2023/06/19 00:34:08;;;;;;;10.45;5.32;;;;;;;;;;5068097;28;20034;-76
2023/06/19 00:36:40;;;;;;;9.95;4.97;;;;;;;;;;5048986;28;20031;-80
2023/06/19 00:39:07;;;;;;;10.95;5.07;;;;;;;;;;5055478;28;20024;-77
2023/06/19 00:41:34;;;;;;;12.63;5.10;;;;;;;;;;5066328;28;20470;-77
2023/06/19 00:44:00;;;;;;;8.90;5.10;;;;;;;;;;5052350;28;20115;-78
2023/06/19 00:46:27;;;;;;;8.20;4.53;;;;;;;;;;5062971;28;20033;-78
2023/06/19 00:48:53;;;;;;;9.82;5.10;;;;;;;;;;5067494;28;20481;-77
2023/06/19 00:51:19;;;;;;;7.78;4.95;;;;;;;;;;5069814;28;20519;-77
2023/06/19 00:53:45;;;;;;;12.85;5.15;;;;;;;;;;5068197;28;20064;-77
2023/06/19 00:56:12;;;;;;;8.65;4.80;;;;;;;;;;5067285;28;20066;-78
2023/06/19 00:58:38;;;;;;;9.43;5.00;;;;;;;;;;5067592;28;20029;-78
2023/06/19 01:01:05;;;;;;;7.15;4.32;;;;;;;;;;5069848;28;20052;-78
2023/06/19 01:03:31;;;;;;;8.50;4.88;;;;;;;;;;5068720;28;20036;-80
2023/06/19 01:06:00;;;;;;;9.45;4.55;;;;;;;;;;5071222;28;20115;-78
2023/06/19 01:08:29;;;;;;;9.18;6.53;;;;;;;;;;5052841;28;20523;-78
2023/06/19 01:10:57;;;;;;;13.57;5.45;;;;;;;;;;5068736;28;20115;-78
2023/06/19 01:13:34;;;;;;;7.82;4.25;;;;;;;;;;5070497;28;20127;-78
2023/06/19 01:16:02;;;;;;;11.25;4.68;;;;;;;;;;5046907;28;20550;-77
2023/06/19 01:18:28;;;;;;;11.13;4.80;;;;;;;;;;5066566;28;20021;-78
2023/06/19 01:20:54;;;;;;;10.30;5.13;;;;;;;;;;5063171;28;20032;-77
2023/06/19 01:23:20;;;;;;;10.00;4.43;;;;;;;;;;5067190;28;20104;-78
2023/06/19 01:25:46;;;;;;;10.68;4.55;;;;;;;;;;5066380;28;20161;-79
2023/06/19 01:28:13;;;;;;;9.60;4.95;;;;;;;;;;5066051;28;20446;-76
2023/06/19 01:30:41;;;;;;;9.60;4.80;;;;;;;;;;5051032;28;20025;-76
2023/06/19 01:33:07;;;;;;;5.60;3.90;;;;;;;;;;5068508;28;20032;-77
2023/06/19 01:35:35;;;;;;;10.05;4.65;;;;;;;;;;5069737;28;20455;-75
2023/06/19 01:38:02;;;;;;;9.07;4.22;;;;;;;;;;5069614;28;20569;-76
2023/06/19 01:40:31;;;;;;;9.75;5.68;;;;;;;;;;5064980;28;20013;-75
2023/06/19 01:42:59;;;;;;;11.35;5.13;;;;;;;;;;5048860;28;20053;-78
2023/06/19 01:45:26;;;;;;;9.88;4.70;;;;;;;;;;5067428;28;20067;-78
2023/06/19 01:47:53;;;;;;;9.77;4.65;;;;;;;;;;5050096;28;20032;-76
2023/06/19 01:50:19;;;;;;;8.80;5.20;;;;;;;;;;5057770;28;20029;-76
2023/06/19 01:52:45;;;;;;;8.93;4.63;;;;;;;;;;5065320;28;20393;-78
2023/06/19 01:55:11;;;;;;;8.93;4.75;;;;;;;;;;5063681;28;20035;-76
2023/06/19 01:57:37;;;;;;;8.35;4.93;;;;;;;;;;5068077;28;20059;-76
2023/06/19 02:00:07;;;;;;;14.25;4.75;;;;;;;;;;5068527;28;20065;-77
2023/06/19 02:02:33;;;;;;;7.97;5.10;;;;;;;;;;5065397;28;20077;-77
2023/06/19 02:04:59;;;;;;;8.10;4.97;;;;;;;;;;5046566;28;20539;-76
2023/06/19 02:07:25;;;;;;;9.70;5.00;;;;;;;;;;5065463;28;20028;-76
2023/06/19 02:09:51;;;;;;;8.20;4.50;;;;;;;;;;5052360;28;20033;-76
2023/06/19 02:12:17;;;;;;;7.97;4.45;;;;;;;;;;5046471;28;20192;-76
2023/06/19 02:14:44;;;;;;;7.47;4.47;;;;;;;;;;5048803;28;20816;-76
2023/06/19 02:17:10;;;;;;;11.13;5.43;;;;;;;;;;5064211;28;20028;-74
2023/06/19 02:19:36;;;;;;;11.48;5.00;;;;;;;;;;5048726;28;20021;-76
2023/06/19 02:22:02;;;;;;;10.57;5.63;;;;;;;;;;5054229;28;20036;-76
2023/06/19 02:24:28;;;;;;;10.68;6.15;;;;;;;;;;5064875;28;20584;-76
2023/06/19 02:26:54;;;;;;;7.40;5.35;;;;;;;;;;5063577;28;20444;-76
2023/06/19 02:29:21;;;;;;;9.07;5.30;;;;;;;;;;5066729;28;20029;-76
2023/06/19 02:31:47;;;;;;;9.73;5.72;;;;;;;;;;5059247;28;20041;-78
2023/06/19 02:34:13;;;;;;;10.65;4.95;;;;;;;;;;5066980;28;20025;-76
2023/06/19 02:36:40;;;;;;;12.57;4.93;;;;;;;;;;5047932;28;20542;-76
2023/06/19 02:39:06;;;;;;;11.15;5.30;;;;;;;;;;5069782;28;20032;-76
2023/06/19 02:41:32;;;;;;;9.02;4.45;;;;;;;;;;5069897;28;20439;-76
2023/06/19 02:43:58;;;;;;;11.55;5.25;;;;;;;;;;5040903;28;20028;-76
2023/06/19 02:46:24;;;;;;;9.82;5.68;;;;;;;;;;5062199;28;20054;-76
2023/06/19 02:48:51;;;;;;;12.43;5.38;;;;;;;;;;5069594;28;20472;-76
2023/06/19 02:51:17;;;;;;;7.93;5.82;;;;;;;;;;5064033;28;20029;-78
2023/06/19 02:53:43;;;;;;;14.13;6.25;;;;;;;;;;5041454;28;20028;-79
2023/06/19 02:56:10;;;;;;;11.20;5.30;;;;;;;;;;5067574;28;20051;-79
2023/06/19 02:58:37;;;;;;;8.30;4.30;;;;;;;;;;5050434;28;20079;-79
2023/06/19 03:01:06;;;;;;;10.20;6.45;;;;;;;;;;5065249;28;20358;-77
2023/06/19 03:03:37;;;;;;;9.48;5.85;;;;;;;;;;5062583;28;20044;-79
2023/06/19 03:06:04;;;;;;;10.23;4.70;;;;;;;;;;5071295;28;20048;-80
2023/06/19 03:08:30;;;;;;;12.05;5.13;;;;;;;;;;5060602;28;20430;-76
2023/06/19 03:10:57;;;;;;;12.02;5.10;;;;;;;;;;5048633;28;20055;-76
2023/06/19 03:13:23;;;;;;;9.00;5.22;;;;;;;;;;5064874;28;20032;-77
2023/06/19 03:15:49;;;;;;;13.27;5.10;;;;;;;;;;5049133;28;20024;-76
2023/06/19 03:18:15;;;;;;;10.45;5.63;;;;;;;;;;5068592;28;20028;-78
2023/06/19 03:20:41;;;;;;;11.18;5.43;;;;;;;;;;5066408;28;20385;-76
2023/06/19 03:23:07;;;;;;;9.00;5.13;;;;;;;;;;5071773;28;20108;-75
2023/06/19 03:25:34;;;;;;;9.75;5.05;;;;;;;;;;5066772;28;20626;-80
2023/06/19 03:28:04;;;;;;;9.27;5.38;;;;;;;;;;5070234;28;20052;-79
2023/06/19 03:30:30;;;;;;;8.90;4.72;;;;;;;;;;5068391;28;20033;-75
2023/06/19 03:32:56;;;;;;;9.35;5.63;;;;;;;;;;5072807;28;20693;-77
2023/06/19 03:35:23;;;;;;;10.10;5.20;;;;;;;;;;5071652;28;20016;-76
2023/06/19 03:37:49;;;;;;;6.95;4.65;;;;;;;;;;5054970;28;20032;-76
2023/06/19 03:40:15;;;;;;;8.80;5.15;;;;;;;;;;5073579;28;20024;-79
2023/06/19 03:42:42;;;;;;;14.38;6.20;;;;;;;;;;5068738;28;20485;-77
2023/06/19 03:45:08;;;;;;;10.93;5.47;;;;;;;;;;5052946;28;20036;-76
2023/06/19 03:47:34;;;;;;;9.90;5.35;;;;;;;;;;5065587;28;20024;-77
2023/06/19 03:50:00;;;;;;;6.75;5.00;;;;;;;;;;5067115;28;20028;-77
2023/06/19 03:52:27;;;;;;;12.98;5.45;;;;;;;;;;5049161;28;20039;-79
2023/06/19 03:54:53;;;;;;;10.02;4.72;;;;;;;;;;5069462;28;20031;-77
2023/06/19 03:57:19;;;;;;;9.75;4.90;;;;;;;;;;5068417;28;20024;-79
2023/06/19 03:59:45;;;;;;;8.30;5.43;;;;;;;;;;5056210;28;20025;-78
2023/06/19 04:02:11;;;;;;;10.50;5.53;;;;;;;;;;5070459;28;20032;-80
2023/06/19 04:04:37;;;;;;;10.85;5.10;;;;;;;;;;5064050;28;20052;-78
2023/06/19 04:07:03;;;;;;;10.30;4.70;;;;;;;;;;5063510;28;20059;-78
2023/06/19 04:09:29;;;;;;;13.02;5.28;;;;;;;;;;5054739;28;20032;-77
2023/06/19 04:11:55;;;;;;;9.07;5.28;;;;;;;;;;5068143;28;20485;-77
2023/06/19 04:14:23;;;;;;;10.40;4.60;;;;;;;;;;5063368;28;20029;-80
2023/06/19 04:16:49;;;;;;;10.65;4.65;;;;;;;;;;5064878;28;20107;-77
2023/06/19 04:19:15;;;;;;;9.98;5.32;;;;;;;;;;5070503;28;20028;-77
2023/06/19 04:21:41;;;;;;;8.77;5.72;;;;;;;;;;5067898;28;20110;-77
2023/06/19 04:24:08;;;;;;;8.55;4.60;;;;;;;;;;5066168;28;20438;-77
2023/06/19 04:26:38;;;;;;;12.93;5.47;;;;;;;;;;5060740;28;20432;-77
2023/06/19 04:29:06;;;;;;;7.53;5.05;;;;;;;;;;5065962;28;20029;-77
2023/06/19 04:31:32;;;;;;;9.20;4.75;;;;;;;;;;5042261;28;20057;-77
2023/06/19 04:33:58;;;;;;;10.15;4.95;;;;;;;;;;5068055;28;20072;-77
2023/06/19 04:36:24;;;;;;;10.75;5.32;;;;;;;;;;5064544;28;20028;-77
2023/06/19 04:38:53;;;;;;;7.03;4.63;;;;;;;;;;5066023;28;20024;-77
2023/06/19 04:41:19;;;;;;;8.30;4.50;;;;;;;;;;5049276;28;20027;-77
2023/06/19 04:43:46;;;;;;;8.35;4.57;;;;;;;;;;5067002;28;20032;-78
2023/06/19 04:46:12;;;;;;;8.35;4.88;;;;;;;;;;5052960;28;20029;-77
2023/06/19 04:48:39;;;;;;;9.70;4.45;;;;;;;;;;5071268;28;20489;-78
2023/06/19 04:51:05;;;;;;;10.95;5.25;;;;;;;;;;5068272;28;20020;-78
2023/06/19 04:53:31;;;;;;;10.75;4.80;;;;;;;;;;5068455;28;20044;-77
2023/06/19 04:55:58;;;;;;;10.70;4.88;;;;;;;;;;5063910;28;20372;-78
2023/06/19 04:58:24;;;;;;;14.60;5.82;;;;;;;;;;5069065;28;20033;-79
2023/06/19 05:00:51;;;;;;;10.60;5.03;;;;;;;;;;5050696;28;20032;-77
2023/06/19 05:03:18;;;;;;;10.18;4.60;;;;;;;;;;5067105;28;20039;-77
2023/06/19 05:05:44;;;;;;;10.55;5.50;;;;;;;;;;5079304;28;20143;-76
2023/06/19 05:08:10;;;;;;;7.97;4.38;;;;;;;;;;5071031;28;20182;-78
2023/06/19 05:10:36;;;;;;;7.22;5.00;;;;;;;;;;5042580;28;20032;-77
2023/06/19 05:13:03;;;;;;;8.60;5.47;;;;;;;;;;5073360;28;20035;-78
2023/06/19 05:15:29;;;;;;;7.75;4.63;;;;;;;;;;5068691;28;20430;-77
2023/06/19 05:17:55;;;;;;;7.28;4.32;;;;;;;;;;5044797;28;20096;-79
2023/06/19 05:20:21;;;;;;;6.65;4.72;;;;;;;;;;5070127;28;20029;-78
2023/06/19 05:22:47;;;;;;;7.68;4.78;;;;;;;;;;5066118;28;20031;-78
2023/06/19 05:25:13;;;;;;;6.60;4.00;;;;;;;;;;5074044;28;20066;-77
2023/06/19 05:27:39;;;;;;;6.45;4.85;;;;;;;;;;5058908;28;20028;-77
2023/06/19 05:30:06;;;;;;;7.95;4.45;;;;;;;;;;5070352;28;20077;-79
2023/06/19 05:32:32;;;;;;;7.53;4.57;;;;;;;;;;5065877;28;20120;-77
2023/06/19 05:34:58;;;;;;;9.13;4.70;;;;;;;;;;5068505;28;20024;-78
2023/06/19 05:37:24;;;;;;;6.22;4.50;;;;;;;;;;5068724;28;20036;-76
2023/06/19 05:39:51;;;;;;;10.68;4.50;;;;;;;;;;5067976;28;20666;-79
2023/06/19 05:42:18;;;;;;;9.05;4.55;;;;;;;;;;5070685;28;20076;-79
2023/06/19 05:44:44;;;;;;;8.38;4.32;;;;;;;;;;5069172;28;20039;-81
2023/06/19 05:47:11;;;;;;;6.00;4.57;;;;;;;;;;5067083;28;20033;-78
2023/06/19 05:49:37;;;;;;;5.13;4.00;;;;;;;;;;5073405;28;20080;-79
2023/06/19 05:52:04;;;;;;;12.25;5.32;;;;;;;;;;5069244;28;20025;-80
2023/06/19 05:54:30;;;;;;;4.70;4.07;;;;;;;;;;5051017;28;20025;-80
2023/06/19 05:56:56;;;;;;;7.00;4.05;;;;;;;;;;5057341;28;20024;-79
2023/06/19 05:59:22;;;;;;;8.18;4.57;;;;;;;;;;5072692;28;20021;-79
2023/06/19 06:01:50;;;;;;;7.65;4.50;;;;;;;;;;5072443;28;20505;-80
2023/06/19 06:04:17;;;;;;;7.07;4.38;;;;;;;;;;5070766;28;20088;-80
2023/06/19 06:06:43;;;;;;;10.80;4.50;;;;;;;;;;5068938;28;20049;-80
2023/06/19 06:09:12;;;;;;;5.60;4.35;;;;;;;;;;5056962;28;20029;-83
2023/06/19 06:11:38;;;;;;;7.07;4.43;;;;;;;;;;5076599;28;20028;-85
2023/06/19 06:14:04;;;;;;;5.93;3.75;;;;;;;;;;5072031;28;20017;-85
2023/06/19 06:16:30;;;;;;;7.28;4.15;;;;;;;;;;5051656;28;20025;-84
2023/06/19 06:18:56;;;;;;;6.50;4.07;;;;;;;;;;5077060;28;20492;-85
2023/06/19 06:21:23;;;;;;;9.25;4.55;;;;;;;;;;5061539;28;20017;-84
2023/06/19 06:23:49;;;;;;;8.35;3.88;;;;;;;;;;5075053;28;20025;-88
2023/06/19 06:26:15;;;;;;;9.23;4.03;;;;;;;;;;5078311;28;20162;-82
2023/06/19 06:28:41;;;;;;;5.28;3.70;;;;;;;;;;5076029;28;20385;-85
2023/06/19 06:31:07;;;;;;;8.18;4.15;;;;;;;;;;5053027;28;20091;-83
2023/06/19 06:33:33;;;;;;;6.32;4.53;;;;;;;;;;5074478;28;20088;-82
2023/06/19 06:36:00;;;;;;;8.88;3.97;;;;;;;;;;5071489;28;20023;-84
2023/06/19 06:38:26;;;;;;;6.10;3.53;;;;;;;;;;5060439;28;20032;-83
2023/06/19 06:40:52;;;;;;;4.10;3.20;;;;;;;;;;5077008;28;20031;-80
2023/06/19 06:43:18;;;;;;;7.25;3.67;;;;;;;;;;5064231;28;20039;-81
2023/06/19 06:45:45;;;;;;;5.30;3.10;;;;;;;;;;5071102;28;20077;-82
2023/06/19 06:48:11;;;;;;;5.55;3.72;;;;;;;;;;5050007;28;20057;-82
2023/06/19 06:50:37;;;;;;;8.05;3.78;;;;;;;;;;5077523;28;20048;-83
2023/06/19 06:53:03;;;;;;;7.78;3.33;;;;;;;;;;5077654;28;20036;-84
2023/06/19 06:55:29;;;;;;;5.05;3.35;;;;;;;;;;5072607;28;20028;-81
2023/06/19 06:57:57;;;;;;;5.25;3.33;;;;;;;;;;5052627;28;20055;-80
2023/06/19 07:00:23;;;;;;;5.78;4.18;;;;;;;;;;5061003;28;20064;-81
2023/06/19 07:02:50;;;;;;;6.82;3.17;;;;;;;;;;5049276;28;20473;-81
2023/06/19 07:05:16;;;;;;;7.72;3.53;;;;;;;;;;5074601;28;20032;-80
2023/06/19 07:07:42;;;;;;;6.38;3.50;;;;;;;;;;5071742;28;20051;-81
2023/06/19 07:10:09;;;;;;;6.75;3.25;;;;;;;;;;5080167;28;20047;-80
2023/06/19 07:12:36;;;;;;;5.50;3.47;;;;;;;;;;5072245;28;20102;-82
2023/06/19 07:15:02;;;;;;;5.32;3.03;;;;;;;;;;5063925;28;20032;-82
2023/06/19 07:17:28;;;;;;;4.80;2.80;;;;;;;;;;5053548;28;20052;-79
2023/06/19 07:19:54;;;;;;;3.40;2.78;;;;;;;;;;5064354;28;20088;-80
2023/06/19 07:22:20;;;;;;;5.07;3.15;;;;;;;;;;5071077;28;20386;-81
2023/06/19 07:24:46;;;;;;;4.43;3.50;;;;;;;;;;5076627;28;20155;-80
2023/06/19 07:27:13;;;;;;;5.85;2.80;;;;;;;;;;5085184;28;20032;-79
2023/06/19 07:29:39;;;;;;;4.45;2.70;;;;;;;;;;5073293;28;20454;-86
2023/06/19 07:32:05;;;;;;;6.38;3.22;;;;;;;;;;5056766;28;20108;-79
2023/06/19 07:34:31;;;;;;;5.03;2.85;;;;;;;;;;5077941;28;20016;-80
2023/06/19 07:36:57;;;;;;;5.32;3.00;;;;;;;;;;5073504;28;20032;-80
2023/06/19 07:39:23;;;;;;;5.97;2.80;;;;;;;;;;5074512;28;20058;-80
2023/06/19 07:41:50;;;;;;;4.35;3.10;;;;;;;;;;5081985;28;20043;-81
2023/06/19 07:44:17;;;;;;;6.00;2.83;;;;;;;;;;5074407;28;20048;-80
2023/06/19 07:46:43;;;;;;;4.32;2.92;;;;;;;;;;5054518;28;20036;-79
2023/06/19 07:49:10;;;;;;;4.75;3.00;;;;;;;;;;5071647;28;20056;-79
2023/06/19 07:51:36;;;;;;;3.20;2.72;;;;;;;;;;5072053;28;20028;-79
2023/06/19 07:54:02;;;;;;;4.63;2.80;;;;;;;;;;5077533;28;20733;-79
2023/06/19 07:56:28;;;;;;;4.90;2.70;;;;;;;;;;5072180;28;20032;-80
2023/06/19 07:58:54;;;;;;;6.10;2.97;;;;;;;;;;5077607;28;20021;-80
2023/06/19 08:01:20;;;;;;;3.20;2.83;;;;;;;;;;5052113;28;21232;-80
2023/06/19 08:03:46;;;;;;;4.45;2.50;;;;;;;;;;5077220;28;20033;-84
2023/06/19 08:06:12;;;;;;;5.35;2.58;;;;;;;;;;5073667;28;20047;-82
2023/06/19 08:08:39;;;;;;;6.00;2.97;;;;;;;;;;5059079;28;20454;-82
2023/06/19 08:11:05;;;;;;;4.53;2.92;;;;;;;;;;5059510;28;20060;-81
2023/06/19 08:13:31;;;;;;;4.82;2.55;;;;;;;;;;5064191;28;20025;-82
2023/06/19 08:15:57;;;;;;;5.40;2.80;;;;;;;;;;5072748;28;20025;-81
2023/06/19 08:18:23;;;;;;;5.40;2.60;;;;;;;;;;5074998;28;20021;-82
2023/06/19 08:20:49;;;;;;;3.92;2.67;;;;;;;;;;5078516;28;20025;-83
2023/06/19 08:23:15;;;;;;;4.05;2.97;;;;;;;;;;5075206;28;20063;-80
2023/06/19 08:25:41;;;;;;;4.43;3.13;;;;;;;;;;5056857;28;20034;-82
2023/06/19 08:28:08;;;;;;;3.72;2.60;;;;;;;;;;5078125;28;20039;-81
2023/06/19 08:30:35;;;;;;;4.70;2.85;;;;;;;;;;5077175;28;20039;-81
2023/06/19 08:33:01;;;;;;;3.50;2.70;;;;;;;;;;5074671;28;20028;-81
2023/06/19 08:35:27;;;;;;;5.53;2.72;;;;;;;;;;5078183;28;20037;-82
2023/06/19 08:37:54;;;;;;;3.83;2.70;;;;;;;;;;5069419;28;20096;-81
2023/06/19 08:40:20;;;;;;;4.22;2.92;;;;;;;;;;5080134;28;20021;-82
2023/06/19 08:42:47;;;;;;;5.82;2.60;;;;;;;;;;5076780;28;20052;-82
2023/06/19 08:45:13;;;;;;;8.50;3.67;;;;;;;;;;5076976;28;20083;-82
2023/06/19 08:47:39;;;;;;;4.43;2.75;;;;;;;;;;5078141;28;20028;-82
2023/06/19 08:50:05;;;;;;;4.88;2.80;;;;;;;;;;5076798;28;20108;-82
2023/06/19 08:52:32;;;;;;;4.13;2.80;;;;;;;;;;5075459;28;20104;-81
2023/06/19 08:54:58;;;;;;;3.85;2.50;;;;;;;;;;5073139;28;20025;-82
2023/06/19 08:57:38;;;;;;;4.07;2.70;;;;;;;;;;5077893;28;20024;-81
2023/06/19 09:00:09;;;;;;;6.32;2.88;;;;;;;;;;5077982;28;20056;-81
2023/06/19 09:02:42;;;;;;;4.28;2.83;;;;;;;;;;5056738;28;20045;-81
2023/06/19 09:05:15;;;;;;;5.05;2.67;;;;;;;;;;5077377;28;20028;-81
2023/06/19 09:07:42;;;;;;;4.63;2.58;;;;;;;;;;5077981;28;20077;-81
2023/06/19 09:10:18;;;;;;;5.85;2.50;;;;;;;;;;5072955;28;20044;-81
2023/06/19 09:12:45;;;;;;;4.78;2.30;;;;;;;;;;5081892;28;20039;-80
2023/06/19 09:15:12;;;;;;;6.53;2.90;;;;;;;;;;5080509;28;20028;-82
2023/06/19 09:17:39;;;;;;;5.90;2.60;;;;;;;;;;5074928;28;20028;-81
2023/06/19 09:20:05;;;;;;;4.40;2.58;;;;;;;;;;5077639;28;20666;-81
2023/06/19 09:22:32;;;;;;;4.85;2.88;;;;;;;;;;5078726;28;20031;-81
2023/06/19 09:25:02;;;;;;;7.03;3.92;;;;;;;;;;5046314;28;20028;-80
2023/06/19 09:27:33;;;;;;;4.47;2.80;;;;;;;;;;5069136;28;20192;-81
2023/06/19 09:29:59;;;;;;;3.85;2.50;;;;;;;;;;5072654;28;20029;-80
2023/06/19 09:32:26;;;;;;;3.47;2.42;;;;;;;;;;5076922;28;20493;-80
2023/06/19 09:34:54;;;;;;;3.92;2.65;;;;;;;;;;5084409;28;20016;-81
2023/06/19 09:37:30;;;;;;;2.88;2.40;;;;;;;;;;5076502;28;20020;-80
2023/06/19 09:39:57;;;;;;;4.53;2.72;;;;;;;;;;5075235;28;20021;-80
2023/06/19 09:42:26;;;;;;;3.20;2.10;;;;;;;;;;5061384;28;20618;-80
2023/06/19 09:44:56;;;;;;;2.20;1.98;;;;;;;;;;5061116;28;20032;-80
2023/06/19 09:47:24;;;;;;;4.28;2.33;;;;;;;;;;5075200;28;20039;-80
2023/06/19 09:49:54;;;;;;;3.10;2.30;;;;;;;;;;5059416;28;20024;-80
2023/06/19 09:52:22;;;;;;;3.22;2.55;;;;;;;;;;5075825;28;20524;-79
2023/06/19 09:54:50;;;;;;;3.60;2.45;;;;;;;;;;5075125;28;20032;-79
2023/06/19 09:57:16;;;;;;;4.05;2.20;;;;;;;;;;5055898;28;20647;-80
2023/06/19 09:59:42;;;;;;;2.88;2.35;;;;;;;;;;5071486;28;20036;-80
2023/06/19 10:02:09;;;;;;;4.50;2.80;;;;;;;;;;5069499;28;20051;-81
2023/06/19 10:04:51;;;;;;;4.05;2.65;;;;;;;;;;5076832;28;20111;-80
2023/06/19 10:07:21;;;;;;;17.00;5.25;;;;;;;;;;5075937;28;20032;-80
2023/06/19 10:10:01;;;;;;;3.40;2.40;;;;;;;;;;5044477;28;20135;-80
2023/06/19 10:12:36;;;;;;;4.55;2.63;;;;;;;;;;5074315;28;20021;-80
2023/06/19 10:15:02;;;;;;;;;;;;;;;;;;5077364;28;20458;-80
2023/06/19 10:17:30;;;;;;;5.38;2.42;;;;;;;;;;5075305;28;19908;-80
2023/06/19 10:19:57;;;;;;;5.70;2.55;;;;;;;;;;5062177;28;20036;-80
2023/06/19 10:22:23;;;;;;;2.60;2.40;;;;;;;;;;5059318;28;20021;-78
2023/06/19 10:24:50;;;;;;;4.22;2.40;;;;;;;;;;5069690;28;20025;-79
2023/06/19 10:27:21;;;;;;;3.67;2.15;;;;;;;;;;5076169;28;20028;-80
2023/06/19 10:30:00;;;;;;;3.15;2.30;;;;;;;;;;5071283;28;20179;-79
2023/06/19 10:32:26;;;;;;;5.93;3.78;;;;;;;;;;5069991;28;20182;-78
2023/06/19 10:34:52;;;;;;;4.38;2.30;;;;;;;;;;5075449;28;20028;-79
2023/06/19 10:37:18;;;;;;;4.80;2.40;;;;;;;;;;5074615;28;20036;-79
2023/06/19 10:39:44;;;;;;;3.78;2.53;;;;;;;;;;5071206;28;20033;-78
2023/06/19 10:42:11;;;;;;;6.07;2.42;;;;;;;;;;5056203;28;20029;-82
2023/06/19 10:44:37;;;;;;;2.70;2.35;;;;;;;;;;5046786;28;20032;-79
2023/06/19 10:47:05;;;;;;;4.80;2.20;;;;;;;;;;5074330;28;20036;-79
2023/06/19 10:49:31;;;;;;;3.75;2.38;;;;;;;;;;5077836;28;20119;-78
2023/06/19 10:51:59;;;;;;;4.70;2.20;;;;;;;;;;5068256;28;20028;-79
2023/06/19 10:54:26;;;;;;;3.40;2.55;;;;;;;;;;5073221;28;20029;-79
2023/06/19 10:56:52;;;;;;;7.07;2.58;;;;;;;;;;5057792;28;20029;-81
2023/06/19 10:59:18;;;;;;;4.00;2.50;;;;;;;;;;5071782;28;20108;-78
2023/06/19 11:01:50;;;;;;;4.53;2.75;;;;;;;;;;5071589;28;20067;-80
2023/06/19 11:04:16;;;;;;;3.33;2.38;;;;;;;;;;5072811;28;20124;-80
2023/06/19 11:06:43;;;;;;;4.40;2.40;;;;;;;;;;5071951;28;20036;-78
2023/06/19 11:09:12;;;;;;;3.50;2.70;;;;;;;;;;5067484;28;20033;-80
2023/06/19 11:11:43;;;;;;;6.15;2.80;;;;;;;;;;5070575;28;20024;-78
2023/06/19 11:14:10;;;;;;;4.53;2.50;;;;;;;;;;5074059;28;20025;-79
2023/06/19 11:16:41;;;;;;;4.32;2.85;;;;;;;;;;5055990;28;20108;-80
2023/06/19 11:19:15;;;;;;;3.58;2.45;;;;;;;;;;5070635;28;20019;-79
2023/06/19 11:21:45;;;;;;;3.38;2.78;;;;;;;;;;5053862;28;20455;-79
2023/06/19 11:24:12;;;;;;;3.92;2.45;;;;;;;;;;5072560;28;20066;-80
2023/06/19 11:26:49;;;;;;;2.35;2.10;;;;;;;;;;5073497;28;20437;-78
2023/06/19 11:29:24;;;;;;;3.20;2.33;;;;;;;;;;5064659;28;20041;-79
2023/06/19 11:31:53;;;;;;;2.80;2.20;;;;;;;;;;5071347;28;20049;-80
2023/06/19 11:34:19;;;;;;;3.22;2.35;;;;;;;;;;5065148;28;20508;-78
2023/06/19 11:36:46;;;;;;;5.50;2.25;;;;;;;;;;5067812;28;20064;-79
2023/06/19 11:39:15;;;;;;;3.92;2.38;;;;;;;;;;5070875;28;20036;-78
2023/06/19 11:41:42;;;;;;;4.20;2.30;;;;;;;;;;5054862;28;20141;-79
2023/06/19 11:44:11;;;;;;;3.75;2.70;;;;;;;;;;5073423;28;20039;-78
2023/06/19 11:46:37;;;;;;;3.15;2.42;;;;;;;;;;5072935;28;20032;-78
2023/06/19 11:49:12;;;;;;;6.28;2.58;;;;;;;;;;5055418;28;20028;-78
2023/06/19 11:51:38;;;;;;;4.78;2.35;;;;;;;;;;5062017;28;20067;-79
2023/06/19 11:54:08;;;;;;;3.58;2.33;;;;;;;;;;5070285;28;20028;-78
2023/06/19 11:56:41;;;;;;;2.95;2.20;;;;;;;;;;5055694;28;20062;-78
2023/06/19 11:59:08;;;;;;;9.95;2.67;;;;;;;;;;5075796;28;20020;-78
2023/06/19 12:01:35;;;;;;;2.67;2.15;;;;;;;;;;5060363;28;20025;-78
2023/06/19 12:04:02;;;;;;;3.03;2.20;;;;;;;;;;5076986;28;20095;-78
2023/06/19 12:06:29;;;;;;;3.75;2.80;;;;;;;;;;5079321;28;20077;-78
2023/06/19 12:08:55;;;;;;;3.60;2.33;;;;;;;;;;5075970;28;20017;-78
2023/06/19 12:11:21;;;;;;;2.50;2.10;;;;;;;;;;5071963;28;20465;-79
2023/06/19 12:13:47;;;;;;;3.80;2.42;;;;;;;;;;5075990;28;20028;-78
2023/06/19 12:16:14;;;;;;;2.78;2.22;;;;;;;;;;5057402;28;20032;-78
2023/06/19 12:18:40;;;;;;;2.33;2.13;;;;;;;;;;5076049;28;20523;-78
2023/06/19 12:21:06;;;;;;;3.58;2.33;;;;;;;;;;5077815;28;20032;-79
2023/06/19 12:23:33;;;;;;;3.13;2.25;;;;;;;;;;5059582;28;20452;-78
2023/06/19 12:25:59;;;;;;;3.42;2.47;;;;;;;;;;5067020;28;20021;-78
2023/06/19 12:28:25;;;;;;;3.47;2.83;;;;;;;;;;5071105;28;20028;-79
2023/06/19 12:30:51;;;;;;;3.05;2.10;;;;;;;;;;5074080;28;20040;-78
2023/06/19 12:33:21;;;;;;;2.30;1.98;;;;;;;;;;5073229;28;20033;-78
2023/06/19 12:35:47;;;;;;;3.47;2.28;;;;;;;;;;5075974;28;20036;-78
2023/06/19 12:38:13;;;;;;;4.05;2.65;;;;;;;;;;5076233;28;20067;-78
2023/06/19 12:40:40;;;;;;;3.70;2.47;;;;;;;;;;5056943;28;20035;-78
2023/06/19 12:43:06;;;;;;;3.05;2.13;;;;;;;;;;5074980;28;20020;-79
2023/06/19 12:45:32;;;;;;;3.22;2.10;;;;;;;;;;5054787;28;20028;-79
2023/06/19 12:47:58;;;;;;;3.70;2.22;;;;;;;;;;5068038;28;20721;-77
2023/06/19 12:50:25;;;;;;;3.22;1.92;;;;;;;;;;5076184;28;20032;-79
2023/06/19 12:52:51;;;;;;;3.22;2.30;;;;;;;;;;5051477;28;20062;-79
2023/06/19 12:55:17;;;;;;;3.33;2.40;;;;;;;;;;5057368;28;20094;-79
2023/06/19 12:57:44;;;;;;;5.18;2.10;;;;;;;;;;5055887;28;20032;-79
2023/06/19 13:00:11;;;;;;;3.55;2.13;;;;;;;;;;5072575;28;20027;-78
2023/06/19 13:02:39;;;;;;;3.60;2.13;;;;;;;;;;5076218;28;20040;-79
2023/06/19 13:05:05;;;;;;;3.25;2.20;;;;;;;;;;5069217;28;20077;-79
2023/06/19 13:07:31;;;;;;;3.55;2.20;;;;;;;;;;5070849;28;20024;-80
2023/06/19 13:09:58;;;;;;;4.40;2.20;;;;;;;;;;5047173;28;20052;-79
2023/06/19 13:12:25;;;;;;;3.03;2.25;;;;;;;;;;5073233;28;20108;-79
2023/06/19 13:14:51;;;;;;;2.88;2.13;;;;;;;;;;5063776;28;20104;-83
2023/06/19 13:17:17;;;;;;;3.63;2.05;;;;;;;;;;5070163;28;20029;-78
2023/06/19 13:19:44;;;;;;;2.67;2.10;;;;;;;;;;5071441;28;20032;-78
2023/06/19 13:22:10;;;;;;;3.85;2.28;;;;;;;;;;5075706;28;20118;-79
2023/06/19 13:24:36;;;;;;;2.13;1.88;;;;;;;;;;5073459;28;20052;-79
2023/06/19 13:27:02;;;;;;;2.75;2.28;;;;;;;;;;5072142;28;20452;-80
2023/06/19 13:29:28;;;;;;;2.78;2.05;;;;;;;;;;5059861;28;20033;-80
2023/06/19 13:31:55;;;;;;;3.28;1.98;;;;;;;;;;5070797;28;20059;-79
2023/06/19 13:34:21;;;;;;;3.33;2.70;;;;;;;;;;5079591;28;20028;-79
2023/06/19 13:36:49;;;;;;;2.13;1.92;;;;;;;;;;5054480;28;20047;-81
2023/06/19 13:39:17;;;;;;;4.38;2.22;;;;;;;;;;5057424;28;20024;-79
2023/06/19 13:41:43;;;;;;;3.55;2.40;;;;;;;;;;5069341;28;20015;-79
2023/06/19 13:44:09;;;;;;;5.28;2.30;;;;;;;;;;5070933;28;20031;-86
2023/06/19 13:46:36;;;;;;;2.90;1.85;;;;;;;;;;5056275;28;20294;-81
2023/06/19 13:49:02;;;;;;;2.72;1.90;;;;;;;;;;5055078;28;20123;-78
2023/06/19 13:51:28;;;;;;;2.63;1.90;;;;;;;;;;5053217;28;20474;-77
2023/06/19 13:53:54;;;;;;;2.42;2.15;;;;;;;;;;5067161;28;20365;-77
2023/06/19 13:56:20;;;;;;;3.03;1.80;;;;;;;;;;5067673;28;20033;-77
2023/06/19 13:58:47;;;;;;;2.03;1.80;;;;;;;;;;5066063;28;20032;-78
2023/06/19 14:01:13;;;;;;;2.92;1.90;;;;;;;;;;5064235;28;20445;-78
2023/06/19 14:03:39;;;;;;;2.22;1.95;;;;;;;;;;5064384;28;20032;-77
2023/06/19 14:06:05;;;;;;;3.13;1.80;;;;;;;;;;5071794;28;20028;-77
2023/06/19 14:08:32;;;;;;;3.80;2.38;;;;;;;;;;5065831;28;20032;-78
2023/06/19 14:10:58;;;;;;;2.58;1.92;;;;;;;;;;5061707;28;20020;-77
2023/06/19 14:13:25;;;;;;;2.65;1.90;;;;;;;;;;5065028;28;20108;-78
2023/06/19 14:15:52;;;;;;;1.95;1.75;;;;;;;;;;5067288;28;20024;-77
2023/06/19 14:18:19;;;;;;;2.00;1.80;;;;;;;;;;5071755;28;20029;-77
2023/06/19 14:20:45;;;;;;;2.70;2.10;;;;;;;;;;5068307;28;20092;-78
2023/06/19 14:23:11;;;;;;;2.20;1.83;;;;;;;;;;5067040;28;20062;-78
2023/06/19 14:25:37;;;;;;;1.80;1.70;;;;;;;;;;5055941;28;20040;-78
2023/06/19 14:28:07;;;;;;;3.67;2.28;;;;;;;;;;5072034;28;20028;-78
2023/06/19 14:30:33;;;;;;;4.15;2.03;;;;;;;;;;5071883;28;20036;-77
2023/06/19 14:32:59;;;;;;;2.00;1.80;;;;;;;;;;5066953;28;20400;-78
2023/06/19 14:35:26;;;;;;;2.55;1.90;;;;;;;;;;5067150;28;20035;-78
2023/06/19 14:37:52;;;;;;;2.28;2.05;;;;;;;;;;5068485;28;20037;-78
2023/06/19 14:40:18;;;;;;;2.13;1.90;;;;;;;;;;5053798;28;20025;-79